Time;durP1;ratioP1;P1;durP2;ratioP2;P2;SDS_P1;SDS_P2;PMS_P1;PMS_P2;Temp;Humidity;BMP_temperature;BMP_pressure;BME280_temperature;BME280_humidity;BME280_pressure;Samples;Min_cycle;Max_cycle;Signal;HPM_P1;HPM_P2
2022/05/02 00:00:39;;;;;;;8.77;5.00;;;;;;;10.32;56.78;101518.84;2569027;23;20214;-63
2022/05/02 00:01:39;;;;;;;10.67;5.23;;;;;;;10.78;57.14;101586.53;2569614;23;20183;-62
2022/05/02 00:02:40;;;;;;;8.23;5.13;;;;;;;10.68;56.92;101597.72;2569655;23;20394;-62
2022/05/02 00:03:41;;;;;;;7.13;4.83;;;;;;;10.58;57.08;101587.50;2556219;23;20243;-62
2022/05/02 00:04:41;;;;;;;16.23;6.57;;;;;;;9.99;57.46;101500.88;2556268;23;20627;-62
2022/05/02 00:05:43;;;;;;;12.93;6.00;;;;;;;10.56;57.52;101595.44;2569436;23;20182;-62
2022/05/02 00:06:44;;;;;;;14.37;6.27;;;;;;;10.59;57.25;101592.63;2569387;23;20229;-62
2022/05/02 00:07:44;;;;;;;12.17;6.23;;;;;;;10.21;57.25;101535.56;2569646;23;20380;-62
2022/05/02 00:08:45;;;;;;;12.27;6.20;;;;;;;9.47;57.53;101409.91;2569172;23;20257;-62
2022/05/02 00:09:45;;;;;;;25.70;7.23;;;;;;;10.56;57.67;101592.69;2569817;23;20156;-62
2022/05/02 00:10:46;;;;;;;24.73;7.43;;;;;;;10.53;57.27;101593.47;2569062;23;20148;-62
2022/05/02 00:11:46;;;;;;;29.03;8.43;;;;;;;10.52;57.44;101587.16;2569714;23;20205;-62
2022/05/02 00:12:47;;;;;;;36.53;8.67;;;;;;;9.99;57.49;101498.09;2569676;23;20606;-62
2022/05/02 00:13:47;;;;;;;24.83;7.90;;;;;;;10.49;58.02;101584.41;2569273;23;20156;-62
2022/05/02 00:14:48;;;;;;;28.23;7.50;;;;;;;10.45;57.84;101580.91;2569541;23;20615;-62
2022/05/02 00:15:48;;;;;;;18.53;6.87;;;;;;;10.43;58.38;101583.25;2569341;23;20594;-62
2022/05/02 00:16:49;;;;;;;15.60;5.77;;;;;;;10.42;58.21;101576.16;2569279;23;20175;-63
2022/05/02 00:17:59;;;;;;;10.13;5.80;;;;;;;9.94;58.05;101506.06;2569670;23;20175;-62
2022/05/02 00:18:59;;;;;;;11.47;5.33;;;;;;;10.44;58.15;101576.53;2569315;23;20198;-62
2022/05/02 00:20:00;;;;;;;10.93;5.47;;;;;;;10.45;58.49;101580.91;2569147;23;20417;-62
2022/05/02 00:21:01;;;;;;;8.13;4.30;;;;;;;10.26;59.00;101562.81;2569649;23;20155;-62
2022/05/02 00:22:02;;;;;;;7.93;4.83;;;;;;;10.07;59.52;101515.50;2569580;23;20148;-62
2022/05/02 00:23:04;;;;;;;12.13;4.80;;;;;;;10.52;59.52;101575.28;2569308;23;20283;-62
2022/05/02 00:24:05;;;;;;;10.23;5.03;;;;;;;10.54;59.37;101573.69;2569296;23;20375;-62
2022/05/02 00:25:06;;;;;;;8.40;4.80;;;;;;;10.56;59.71;101582.34;2569444;23;20410;-62
2022/05/02 00:26:08;;;;;;;8.30;4.60;;;;;;;10.59;60.05;101578.78;2569091;23;20152;-62
2022/05/02 00:27:08;;;;;;;8.02;4.60;;;;;;;10.60;60.79;101571.25;2569829;23;20710;-63
2022/05/02 00:28:13;;;;;;;10.87;4.70;;;;;;;10.16;61.22;101500.00;2569339;23;20174;-62
2022/05/02 00:29:14;;;;;;;7.47;4.60;;;;;;;10.71;61.26;101575.50;2569261;23;20186;-62
2022/05/02 00:30:15;;;;;;;8.37;4.23;;;;;;;10.82;61.63;101569.84;2569131;23;20848;-63
2022/05/02 00:31:16;;;;;;;7.07;4.10;;;;;;;10.84;61.95;101567.44;2570520;23;20145;-62
2022/05/02 00:32:16;;;;;;;6.40;4.07;;;;;;;10.89;62.25;101567.00;2570408;23;20975;-62
2022/05/02 00:33:20;;;;;;;6.93;4.30;;;;;;;10.93;62.03;101568.56;2570468;23;20158;-62
2022/05/02 00:34:20;;;;;;;6.33;4.00;;;;;;;11.02;61.52;101570.84;2570105;23;20151;-62
2022/05/02 00:35:21;;;;;;;9.83;4.40;;;;;;;11.05;61.10;101570.00;2570004;23;20418;-63
2022/05/02 00:36:21;;;;;;;6.20;4.30;;;;;;;10.95;60.59;101545.94;2570112;23;20153;-62
2022/05/02 00:37:22;;;;;;;7.43;4.20;;;;;;;11.11;59.67;101560.81;2570423;23;20234;-62
2022/05/02 00:38:22;;;;;;;6.50;4.23;;;;;;;10.85;59.31;101516.34;2557055;23;20152;-62
2022/05/02 00:39:23;;;;;;;6.70;4.27;;;;;;;11.19;58.41;101565.09;2556848;23;20163;-62
2022/05/02 00:40:24;;;;;;;5.63;4.17;;;;;;;11.20;57.75;101563.09;2556613;23;20167;-62
2022/05/02 00:41:26;;;;;;;5.40;3.70;;;;;;;11.18;57.83;101582.94;2557282;23;20160;-62
2022/05/02 00:42:26;;;;;;;7.83;3.93;;;;;;;11.20;57.49;101572.22;2570146;23;20781;-62
2022/05/02 00:43:27;;;;;;;5.80;3.87;;;;;;;11.21;56.95;101564.66;2570133;23;20385;-62
2022/05/02 00:44:27;;;;;;;5.93;4.03;;;;;;;11.10;56.43;101553.69;2570323;23;20151;-62
2022/05/02 00:45:27;;;;;;;7.93;4.13;;;;;;;11.21;55.88;101564.66;2556700;23;20161;-62
2022/05/02 00:46:28;;;;;;;8.87;4.33;;;;;;;10.76;55.76;101497.41;2556822;23;20156;-63
2022/05/02 00:47:28;;;;;;;7.83;4.07;;;;;;;11.15;55.47;101558.00;2570590;23;20152;-62
2022/05/02 00:48:29;;;;;;;7.93;3.80;;;;;;;11.11;55.62;101562.78;2570118;23;20170;-62
2022/05/02 00:49:29;;;;;;;6.03;4.03;;;;;;;11.09;55.28;101568.78;2570131;23;20152;-62
2022/05/02 00:50:38;;;;;;;7.83;4.17;;;;;;;11.04;55.50;101566.47;2569782;23;20230;-62
2022/05/02 00:51:39;;;;;;;8.03;3.93;;;;;;;10.53;55.05;101486.19;2570367;23;20144;-62
2022/05/02 00:52:39;;;;;;;5.53;3.90;;;;;;;10.97;55.14;101562.97;2570372;23;20696;-62
2022/05/02 00:53:41;;;;;;;11.03;4.53;;;;;;;10.87;55.25;101555.56;2570101;23;20237;-62
2022/05/02 00:54:43;;;;;;;7.10;3.92;;;;;;;10.30;54.93;101471.38;2570039;23;20524;-62
2022/05/02 00:55:45;;;;;;;7.47;4.28;;;;;;;10.83;55.10;101569.44;2569909;23;20151;-62
2022/05/02 00:56:45;;;;;;;10.43;4.65;;;;;;;10.51;55.61;101552.31;2569764;23;20158;-62
2022/05/02 00:57:46;;;;;;;9.13;4.83;;;;;;;10.70;56.07;101576.69;2570285;23;20226;-63
2022/05/02 00:58:48;;;;;;;10.20;5.77;;;;;;;10.64;56.22;101567.25;2569818;23;20159;-62
2022/05/02 00:59:49;;;;;;;8.50;5.57;;;;;;;10.59;56.16;101559.38;2569307;23;20163;-62
2022/05/02 01:00:49;;;;;;;7.33;5.57;;;;;;;10.54;56.32;101573.69;2569161;23;20378;-62
2022/05/02 01:01:50;;;;;;;11.67;5.70;;;;;;;10.49;56.69;101568.56;2570273;23;20188;-62
2022/05/02 01:02:50;;;;;;;11.87;5.70;;;;;;;10.30;57.21;101552.50;2570290;23;20151;-62
2022/05/02 01:03:51;;;;;;;9.13;5.73;;;;;;;10.40;57.34;101564.72;2569851;23;20163;-62
2022/05/02 01:04:51;;;;;;;9.10;5.30;;;;;;;10.35;57.19;101563.13;2569922;23;20156;-62
2022/05/02 01:07:12;;;;;;;8.55;5.60;;;;;;;9.22;56.96;101396.25;2570239;23;20221;-62
2022/05/02 01:08:12;;;;;;;7.47;5.20;;;;;;;10.22;57.38;101553.75;2570309;23;20172;-62
2022/05/02 01:09:13;;;;;;;10.27;5.50;;;;;;;10.18;57.54;101555.75;2570026;23;20211;-62
2022/05/02 01:10:17;;;;;;;10.20;5.10;;;;;;;10.18;57.93;101589.00;2569643;23;20152;-62
2022/05/02 01:11:17;;;;;;;8.35;5.03;;;;;;;10.17;57.65;101565.28;2570385;23;20153;-62
2022/05/02 01:12:24;;;;;;;9.77;5.17;;;;;;;10.17;58.09;101565.28;2570080;23;20684;-62
2022/05/02 01:13:39;;;;;;;7.93;5.23;;;;;;;9.25;58.09;101425.06;2556799;23;20162;-62
2022/05/02 01:14:40;;;;;;;11.00;5.18;;;;;;;10.13;57.86;101570.03;2559771;23;20368;-62
2022/05/02 01:15:41;;;;;;;7.38;4.85;;;;;;;10.09;57.81;101562.97;2569834;23;20221;-62
2022/05/02 01:16:41;;;;;;;11.93;5.40;;;;;;;10.06;57.71;101566.53;2570169;23;20160;-62
2022/05/02 01:17:43;;;;;;;15.13;5.73;;;;;;;10.02;57.91;101561.00;2556838;23;20244;-62
2022/05/02 01:18:45;;;;;;;22.33;6.07;;;;;;;9.90;57.96;101544.06;2556792;23;20189;-62
2022/05/02 01:19:46;;;;;;;12.38;5.50;;;;;;;9.96;57.90;101564.59;2570177;23;20153;-62
2022/05/02 01:20:47;;;;;;;9.70;4.57;;;;;;;9.92;58.12;101561.06;2569845;23;20165;-63
2022/05/02 01:21:47;;;;;;;7.93;4.47;;;;;;;9.89;58.07;101561.88;2570187;23;20574;-62
2022/05/02 01:22:48;;;;;;;7.40;4.70;;;;;;;9.88;58.20;101574.13;2569901;23;20196;-62
2022/05/02 01:23:51;;;;;;;8.57;4.87;;;;;;;9.35;58.25;101490.63;2556829;23;20162;-62
2022/05/02 01:24:51;;;;;;;11.55;5.25;;;;;;;9.83;58.81;101561.50;2557270;23;20154;-62
2022/05/02 01:25:52;;;;;;;17.00;5.73;;;;;;;9.83;58.38;101560.69;2569663;23;20181;-62
2022/05/02 01:26:52;;;;;;;22.30;6.47;;;;;;;9.82;58.33;101568.25;2570196;23;20155;-62
2022/05/02 01:27:53;;;;;;;15.10;5.50;;;;;;;9.81;58.44;101558.38;2570106;23;20408;-62
2022/05/02 01:28:56;;;;;;;11.93;5.27;;;;;;;8.98;58.31;101430.34;2569759;23;20167;-62
2022/05/02 01:29:57;;;;;;;10.30;5.23;;;;;;;9.78;58.86;101564.69;2569680;23;20254;-62
2022/05/02 01:30:58;;;;;;;14.80;4.90;;;;;;;9.76;58.56;101553.25;2570282;23;20382;-63
2022/05/02 01:32:00;;;;;;;10.50;4.90;;;;;;;8.90;58.83;101433.53;2570017;23;20178;-62
2022/05/02 01:33:00;;;;;;;10.60;4.87;;;;;;;9.71;59.20;101556.44;2570307;23;20159;-62
2022/05/02 01:34:01;;;;;;;9.60;4.90;;;;;;;9.71;59.16;101561.97;2569854;23;20865;-62
2022/05/02 01:35:01;;;;;;;6.93;4.50;;;;;;;9.69;59.46;101567.13;2569852;23;20577;-62
2022/05/02 01:36:03;;;;;;;9.77;4.67;;;;;;;9.68;59.27;101567.53;2569679;23;20147;-62
2022/05/02 01:37:04;;;;;;;7.47;4.50;;;;;;;9.66;59.79;101564.38;2570055;23;20151;-62
2022/05/02 01:38:05;;;;;;;10.60;4.70;;;;;;;9.57;59.15;101548.22;2570157;23;20870;-62
2022/05/02 01:39:05;;;;;;;8.50;4.50;;;;;;;9.63;59.47;101559.66;2569649;23;20171;-62
2022/05/02 01:40:06;;;;;;;13.20;5.60;;;;;;;8.99;59.48;101462.34;2569402;23;20154;-62
2022/05/02 01:41:07;;;;;;;8.47;4.30;;;;;;;9.65;59.17;101555.28;2570021;23;20153;-62
2022/05/02 01:42:10;;;;;;;10.47;4.53;;;;;;;9.61;59.30;101562.81;2570168;23;20152;-62
2022/05/02 01:43:10;;;;;;;9.53;4.17;;;;;;;9.64;58.94;101555.69;2570085;23;20374;-62
2022/05/02 01:44:11;;;;;;;8.00;4.20;;;;;;;9.61;58.39;101551.75;2570038;23;20386;-62
2022/05/02 01:45:12;;;;;;;6.63;4.67;;;;;;;9.58;58.41;101555.31;2569895;23;20159;-62
2022/05/02 01:46:13;;;;;;;9.10;4.63;;;;;;;9.26;58.32;101502.13;2569758;23;20175;-62
2022/05/02 01:47:14;;;;;;;9.73;4.47;;;;;;;9.57;58.84;101547.41;2570201;23;20192;-62
2022/05/02 01:48:14;;;;;;;7.47;4.60;;;;;;;8.23;58.60;101341.81;2569883;23;20452;-62
2022/05/02 01:49:15;;;;;;;9.27;4.23;;;;;;;9.56;58.67;101549.41;2569747;23;20222;-62
2022/05/02 01:50:15;;;;;;;10.67;4.30;;;;;;;9.53;58.82;101541.13;2569473;23;20160;-62
2022/05/02 01:51:16;;;;;;;7.70;4.50;;;;;;;9.53;58.91;101544.66;2570301;23;20172;-62
2022/05/02 01:52:16;;;;;;;8.63;4.30;;;;;;;8.67;59.08;101422.19;2570111;23;20605;-62
2022/05/02 01:53:17;;;;;;;9.07;4.50;;;;;;;9.50;58.97;101536.38;2569829;23;20238;-62
2022/05/02 01:54:17;;;;;;;8.27;4.50;;;;;;;8.69;58.93;101404.03;2570318;23;20175;-64
2022/05/02 01:55:18;;;;;;;10.27;4.30;;;;;;;9.15;59.32;101479.25;2569901;23;20147;-65
2022/05/02 01:56:18;;;;;;;6.87;4.60;;;;;;;9.44;59.21;101524.16;2569702;23;20222;-64
2022/05/02 01:57:19;;;;;;;10.10;4.63;;;;;;;9.55;58.84;101544.25;2570264;23;20148;-64
2022/05/02 01:58:20;;;;;;;12.03;4.93;;;;;;;9.46;58.70;101530.88;2569975;23;20155;-65
2022/05/02 01:59:20;;;;;;;13.80;5.17;;;;;;;9.44;59.20;101524.94;2569861;23;20276;-64
2022/05/02 02:00:21;;;;;;;18.83;6.40;;;;;;;9.50;58.90;101545.50;2569427;23;20216;-65
2022/05/02 02:01:21;;;;;;;10.87;5.27;;;;;;;9.37;59.05;101530.50;2570139;23;20182;-65
2022/05/02 02:02:22;;;;;;;10.27;5.33;;;;;;;9.49;58.75;101548.66;2569996;23;20562;-64
2022/05/02 02:03:23;;;;;;;11.77;6.53;;;;;;;9.46;58.77;101541.94;2556534;23;20189;-64
2022/05/02 02:05:48;;;;;;;15.07;5.95;;;;;;;9.40;59.25;101551.84;2569703;23;20549;-64
2022/05/02 02:06:49;;;;;;;12.80;5.70;;;;;;;9.37;59.56;101551.88;2569790;23;20596;-64
2022/05/02 02:07:50;;;;;;;15.10;6.67;;;;;;;8.78;59.69;101461.63;2569759;23;20193;-64
2022/05/02 02:08:50;;;;;;;11.17;6.43;;;;;;;9.18;59.75;101535.75;2569699;23;20848;-64
2022/05/02 02:09:51;;;;;;;13.63;7.07;;;;;;;9.30;60.03;101549.13;2569577;23;20192;-64
2022/05/02 02:10:53;;;;;;;12.50;6.37;;;;;;;9.30;60.04;101549.13;2569804;23;20161;-64
2022/05/02 02:11:54;;;;;;;15.77;6.28;;;;;;;9.28;60.05;101552.28;2570106;23;20154;-65
2022/05/02 02:12:54;;;;;;;16.83;6.73;;;;;;;9.28;60.48;101551.50;2569989;23;20149;-64
2022/05/02 02:13:55;;;;;;;16.23;6.80;;;;;;;8.52;60.13;101426.97;2569619;23;20659;-64
2022/05/02 02:14:55;;;;;;;13.87;6.40;;;;;;;9.29;59.97;101547.53;2569740;23;20224;-64
2022/05/02 02:15:56;;;;;;;10.83;5.83;;;;;;;8.35;59.88;101405.69;2569445;23;20156;-64
2022/05/02 02:16:57;;;;;;;9.85;6.05;;;;;;;9.10;60.10;101523.13;2569780;23;20158;-64
2022/05/02 02:17:57;;;;;;;13.67;5.93;;;;;;;9.16;60.35;101535.34;2570048;23;20184;-65
2022/05/02 02:18:58;;;;;;;12.03;5.70;;;;;;;9.13;61.07;101548.00;2569625;23;20580;-64
2022/05/02 02:19:58;;;;;;;37.27;7.87;;;;;;;9.11;60.64;101538.50;2569226;23;20159;-65
2022/05/02 02:20:59;;;;;;;41.00;8.43;;;;;;;8.96;60.54;101539.78;2570185;23;20236;-65
2022/05/02 02:22:16;;;;;;;30.70;7.60;;;;;;;8.91;59.90;101542.94;2569864;23;20671;-64
2022/05/02 02:23:17;;;;;;;26.80;6.82;;;;;;;8.63;60.34;101532.72;2569715;23;20153;-65
2022/05/02 02:24:17;;;;;;;22.63;6.97;;;;;;;8.80;60.24;101545.72;2570066;23;20177;-64
2022/05/02 02:25:18;;;;;;;9.13;5.00;;;;;;;8.80;59.66;101536.63;2569646;23;20149;-64
2022/05/02 02:26:18;;;;;;;11.33;5.10;;;;;;;8.45;59.85;101498.81;2556461;23;20277;-64
2022/05/02 02:27:19;;;;;;;22.07;6.50;;;;;;;8.73;59.54;101537.44;2556901;23;20147;-64
2022/05/02 02:28:20;;;;;;;31.70;7.80;;;;;;;8.22;60.69;101465.31;2569747;23;20559;-64
2022/05/02 02:29:20;;;;;;;23.33;7.03;;;;;;;8.22;60.61;101459.78;2569612;23;20146;-65
2022/05/02 02:30:21;;;;;;;25.97;7.30;;;;;;;8.72;60.60;101535.84;2569493;23;20235;-64
2022/05/02 02:31:22;;;;;;;17.27;7.07;;;;;;;8.71;60.62;101539.81;2569927;23;20153;-64
2022/05/02 02:32:22;;;;;;;23.20;7.03;;;;;;;8.73;60.68;101542.97;2569781;23;20161;-65
2022/05/02 02:33:23;;;;;;;23.93;6.93;;;;;;;8.75;61.13;101537.84;2569755;23;20231;-64
2022/05/02 02:34:24;;;;;;;14.50;5.43;;;;;;;8.74;61.07;101539.03;2569769;23;20153;-64
2022/05/02 02:35:25;;;;;;;13.90;5.20;;;;;;;8.73;61.44;101542.19;2569163;23;20186;-65
2022/05/02 02:36:25;;;;;;;11.57;4.93;;;;;;;8.71;61.05;101542.56;2569357;23;20235;-65
2022/05/02 02:37:26;;;;;;;7.17;4.40;;;;;;;8.72;61.09;101543.38;2570035;23;20430;-64
2022/05/02 02:38:26;;;;;;;12.83;4.80;;;;;;;8.63;61.74;101538.25;2569608;23;20176;-64
2022/05/02 02:39:27;;;;;;;11.43;4.70;;;;;;;8.63;61.86;101540.22;2569614;23;20148;-64
2022/05/02 02:40:27;;;;;;;10.37;5.33;;;;;;;8.60;61.74;101521.66;2569242;23;20149;-65
2022/05/02 02:41:28;;;;;;;16.97;5.83;;;;;;;8.72;61.58;101535.84;2570019;23;20149;-64
2022/05/02 02:42:28;;;;;;;11.40;4.97;;;;;;;8.75;61.57;101537.84;2569762;23;20208;-64
2022/05/02 02:43:29;;;;;;;8.60;4.93;;;;;;;8.43;61.50;101478.28;2569501;23;20183;-65
2022/05/02 02:44:29;;;;;;;13.37;5.87;;;;;;;8.76;61.57;101536.66;2569925;23;20163;-64
2022/05/02 02:45:30;;;;;;;8.93;4.70;;;;;;;8.78;61.44;101534.28;2569360;23;20181;-64
2022/05/02 02:46:30;;;;;;;8.33;4.20;;;;;;;8.81;61.45;101539.00;2569590;23;20148;-64
2022/05/02 02:47:31;;;;;;;7.33;4.27;;;;;;;8.81;61.33;101535.47;2569955;23;20172;-64
2022/05/02 02:48:31;;;;;;;7.03;4.27;;;;;;;8.80;60.83;101542.16;2569493;23;20648;-64
2022/05/02 02:49:32;;;;;;;7.27;4.33;;;;;;;8.80;61.10;101534.66;2569812;23;20550;-64
2022/05/02 02:50:32;;;;;;;5.10;4.33;;;;;;;8.21;61.26;101457.41;2569120;23;20502;-64
2022/05/02 02:51:33;;;;;;;7.40;4.10;;;;;;;8.81;61.09;101539.00;2569920;23;20172;-64
2022/05/02 02:52:33;;;;;;;6.23;4.30;;;;;;;8.60;60.94;101511.41;2569733;23;20599;-64
2022/05/02 02:53:34;;;;;;;6.23;3.93;;;;;;;8.33;60.42;101460.56;2569436;23;20511;-64
2022/05/02 02:54:35;;;;;;;5.90;4.27;;;;;;;8.78;60.97;101531.53;2569726;23;20152;-64
2022/05/02 02:55:35;;;;;;;7.83;3.97;;;;;;;8.78;60.53;101534.28;2569622;23;20719;-64
2022/05/02 02:56:36;;;;;;;6.87;4.40;;;;;;;8.75;60.48;101534.28;2569480;23;20186;-64
2022/05/02 02:57:36;;;;;;;7.30;4.50;;;;;;;8.69;60.72;101536.66;2569826;23;20151;-64
2022/05/02 02:58:37;;;;;;;6.57;4.50;;;;;;;8.62;61.26;101533.91;2569244;23;20244;-64
2022/05/02 02:59:37;;;;;;;6.57;3.87;;;;;;;8.55;60.53;101533.91;2570045;23;20155;-64
2022/05/02 03:00:38;;;;;;;10.43;4.50;;;;;;;8.52;60.61;101540.25;2569180;23;20304;-64
2022/05/02 03:01:39;;;;;;;14.70;5.63;;;;;;;8.41;60.27;101539.44;2570174;23;20494;-64
2022/05/02 03:02:41;;;;;;;24.65;7.07;;;;;;;8.16;60.69;101507.47;2569846;23;20153;-64
2022/05/02 03:03:42;;;;;;;19.42;5.57;;;;;;;8.02;60.61;101516.56;2569466;23;20239;-64
2022/05/02 03:06:03;;;;;;;16.20;5.10;;;;;;;8.35;61.58;101543.78;2569327;23;20357;-64
2022/05/02 03:07:05;;;;;;;11.30;5.05;;;;;;;8.38;61.42;101544.97;2569880;23;20224;-64
2022/05/02 03:08:05;;;;;;;8.77;4.43;;;;;;;7.43;61.24;101384.06;2569716;23;20229;-64
2022/05/02 03:09:06;;;;;;;10.93;3.90;;;;;;;8.03;61.19;101473.97;2569450;23;20175;-64
2022/05/02 03:10:07;;;;;;;7.17;3.83;;;;;;;8.43;61.26;101545.38;2569178;23;20537;-64
2022/05/02 03:11:08;;;;;;;7.63;4.20;;;;;;;8.45;61.62;101545.75;2569830;23;20280;-64
2022/05/02 03:12:09;;;;;;;6.63;4.23;;;;;;;8.45;61.67;101547.75;2569689;23;20155;-64
2022/05/02 03:13:10;;;;;;;5.38;3.80;;;;;;;8.45;62.20;101545.75;2569706;23;20157;-64
2022/05/02 03:14:10;;;;;;;5.43;3.73;;;;;;;7.41;62.19;101376.19;2569595;23;20149;-64
2022/05/02 03:15:11;;;;;;;4.77;3.50;;;;;;;8.48;61.87;101542.22;2556191;23;20161;-64
2022/05/02 03:16:12;;;;;;;6.00;3.85;;;;;;;8.45;61.42;101545.75;2556209;23;20618;-64
2022/05/02 03:17:13;;;;;;;6.63;3.80;;;;;;;7.45;61.22;101396.28;2569726;23;20228;-64
2022/05/02 03:18:13;;;;;;;6.63;3.67;;;;;;;8.45;61.93;101543.00;2569695;23;20152;-64
2022/05/02 03:19:14;;;;;;;6.77;4.03;;;;;;;8.45;61.79;101548.53;2569398;23;20504;-65
2022/05/02 03:20:15;;;;;;;5.00;3.90;;;;;;;8.46;61.52;101547.34;2569040;23;20358;-64
2022/05/02 03:21:15;;;;;;;5.90;3.80;;;;;;;8.46;61.75;101547.34;2569864;23;20147;-64
2022/05/02 03:22:15;;;;;;;6.17;3.87;;;;;;;8.40;62.16;101531.56;2569361;23;20227;-64
2022/05/02 03:23:16;;;;;;;7.83;3.90;;;;;;;8.47;62.07;101540.66;2556374;23;20202;-64
2022/05/02 03:24:17;;;;;;;6.57;4.03;;;;;;;8.47;61.71;101551.69;2556633;23;20232;-64
2022/05/02 03:25:17;;;;;;;8.20;4.10;;;;;;;8.48;61.80;101544.97;2569497;23;20148;-64
2022/05/02 03:26:18;;;;;;;7.87;4.40;;;;;;;8.50;62.03;101548.13;2569355;23;20145;-64
2022/05/02 03:27:19;;;;;;;6.47;3.77;;;;;;;8.41;61.65;101533.91;2569917;23;20149;-64
2022/05/02 03:28:19;;;;;;;7.60;3.93;;;;;;;8.43;61.84;101536.28;2569580;23;20268;-64
2022/05/02 03:29:20;;;;;;;7.23;4.17;;;;;;;7.55;61.87;101401.03;2569489;23;20200;-65
2022/05/02 03:30:21;;;;;;;5.77;3.67;;;;;;;8.50;61.94;101547.34;2569222;23;20145;-64
2022/05/02 03:31:22;;;;;;;8.63;3.83;;;;;;;8.52;61.35;101550.50;2569843;23;20153;-64
2022/05/02 03:32:22;;;;;;;6.07;3.93;;;;;;;8.46;61.43;101549.31;2569613;23;20160;-64
2022/05/02 03:33:23;;;;;;;12.13;4.60;;;;;;;8.43;61.66;101548.16;2569485;23;20183;-64
2022/05/02 03:34:23;;;;;;;11.47;4.90;;;;;;;8.37;60.85;101537.88;2569545;23;20196;-65
2022/05/02 03:35:25;;;;;;;9.73;4.27;;;;;;;8.40;60.98;101551.69;2568998;23;20511;-64
2022/05/02 03:36:26;;;;;;;7.68;4.10;;;;;;;8.32;61.06;101552.09;2569222;23;20148;-64
2022/05/02 03:37:26;;;;;;;11.50;4.07;;;;;;;8.23;60.85;101544.19;2569907;23;20540;-64
2022/05/02 03:38:27;;;;;;;7.23;3.97;;;;;;;8.23;61.21;101558.00;2569543;23;20154;-64
2022/05/02 03:39:27;;;;;;;7.63;4.07;;;;;;;8.24;61.82;101553.25;2569376;23;20149;-64
2022/05/02 03:40:28;;;;;;;10.57;4.10;;;;;;;8.22;61.95;101561.16;2568804;23;20215;-65
2022/05/02 03:41:28;;;;;;;11.47;4.70;;;;;;;8.18;61.49;101557.56;2556499;23;20190;-64
2022/05/02 03:42:29;;;;;;;8.33;4.00;;;;;;;8.18;61.94;101555.59;2556514;23;20596;-64
2022/05/02 03:43:29;;;;;;;12.53;4.07;;;;;;;7.18;61.96;101395.03;2569420;23;20149;-64
2022/05/02 03:44:29;;;;;;;6.50;3.83;;;;;;;8.23;61.95;101551.69;2569702;23;20163;-64
2022/05/02 03:45:30;;;;;;;11.57;4.70;;;;;;;8.09;62.48;101537.84;2569270;23;20220;-64
2022/05/02 03:46:31;;;;;;;11.33;4.23;;;;;;;8.24;62.43;101556.00;2569308;23;20240;-64
2022/05/02 03:47:31;;;;;;;14.47;5.60;;;;;;;8.06;62.23;101553.25;2569687;23;20150;-65
2022/05/02 03:48:32;;;;;;;9.73;4.80;;;;;;;8.03;63.20;101551.25;2569302;23;20181;-64
2022/05/02 03:49:32;;;;;;;7.50;4.70;;;;;;;8.04;62.82;101557.56;2569601;23;20231;-64
2022/05/02 03:50:33;;;;;;;8.60;4.60;;;;;;;6.69;62.99;101359.09;2569232;23;20237;-64
2022/05/02 03:51:33;;;;;;;6.30;4.43;;;;;;;7.97;63.49;101546.50;2569787;23;20188;-64
2022/05/02 03:52:34;;;;;;;5.83;3.87;;;;;;;7.90;63.70;101538.22;2569725;23;20161;-64
2022/05/02 03:53:35;;;;;;;6.20;4.10;;;;;;;7.99;63.48;101552.44;2569389;23;20160;-64
2022/05/02 03:54:35;;;;;;;9.03;4.20;;;;;;;7.97;64.06;101541.78;2569362;23;20159;-64
2022/05/02 03:55:36;;;;;;;6.83;4.60;;;;;;;8.05;63.84;101554.41;2569405;23;20153;-64
2022/05/02 03:56:36;;;;;;;7.43;4.50;;;;;;;8.13;64.00;101555.19;2569185;23;20546;-64
2022/05/02 03:57:37;;;;;;;6.53;4.07;;;;;;;8.20;63.50;101556.03;2569708;23;20153;-64
2022/05/02 03:58:37;;;;;;;5.27;3.90;;;;;;;8.20;64.01;101553.25;2569161;23;20163;-64
2022/05/02 03:59:38;;;;;;;5.10;4.23;;;;;;;8.19;64.33;101548.88;2569731;23;20152;-64
2022/05/02 04:00:39;;;;;;;7.17;4.47;;;;;;;8.24;64.23;101559.56;2556025;23;20165;-65
2022/05/02 04:01:40;;;;;;;8.57;4.53;;;;;;;8.30;64.13;101555.22;2555174;23;20511;-64
2022/05/02 04:02:41;;;;;;;6.47;4.63;;;;;;;8.30;63.77;101559.97;2569476;23;20156;-65
2022/05/02 04:03:42;;;;;;;5.55;3.95;;;;;;;8.36;64.45;101561.94;2569245;23;20682;-64
2022/05/02 04:04:42;;;;;;;5.07;4.30;;;;;;;8.43;64.51;101569.44;2569358;23;20548;-65
2022/05/02 04:05:43;;;;;;;6.60;4.67;;;;;;;8.45;64.49;101556.81;2556801;23;20635;-64
2022/05/02 04:06:43;;;;;;;6.37;4.57;;;;;;;8.21;64.53;101516.16;2544615;23;20158;-65
2022/05/02 04:07:44;;;;;;;9.07;5.03;;;;;;;8.57;64.61;101566.69;2557198;23;20177;-64
2022/05/02 04:08:44;;;;;;;10.07;5.13;;;;;;;7.62;64.27;101417.56;2569891;23;20152;-64
2022/05/02 04:09:45;;;;;;;12.77;5.73;;;;;;;8.67;64.53;101563.88;2570551;23;20152;-64
2022/05/02 04:10:45;;;;;;;14.33;5.50;;;;;;;8.68;64.47;101561.94;2569684;23;20151;-64
2022/05/02 04:11:46;;;;;;;17.57;5.50;;;;;;;8.74;64.15;101563.09;2570574;23;20150;-64
2022/05/02 04:12:46;;;;;;;17.83;6.47;;;;;;;8.67;64.22;101549.31;2570524;23;20177;-65
2022/05/02 04:13:47;;;;;;;11.30;5.47;;;;;;;8.66;64.06;101556.78;2570222;23;20149;-65
2022/05/02 04:14:48;;;;;;;16.80;5.20;;;;;;;8.70;64.20;101562.31;2570298;23;20156;-65
2022/05/02 04:15:49;;;;;;;7.97;4.37;;;;;;;8.76;64.66;101569.03;2570039;23;20150;-64
2022/05/02 04:16:50;;;;;;;8.23;4.75;;;;;;;8.42;64.20;101499.63;2570318;23;20154;-64
2022/05/02 04:17:50;;;;;;;9.90;5.07;;;;;;;8.86;64.44;101563.47;2570504;23;20162;-64
2022/05/02 04:18:51;;;;;;;6.90;4.80;;;;;;;8.93;64.44;101555.19;2570139;23;20160;-64
2022/05/02 04:19:52;;;;;;;10.30;5.40;;;;;;;8.76;64.60;101528.34;2570198;23;20232;-64
2022/05/02 04:20:52;;;;;;;5.97;4.87;;;;;;;9.07;64.31;101559.88;2570434;23;20148;-65
2022/05/02 04:21:53;;;;;;;9.20;4.67;;;;;;;9.13;64.85;101561.03;2570456;23;20168;-64
2022/05/02 04:22:54;;;;;;;8.10;4.85;;;;;;;9.15;64.41;101558.66;2570210;23;20193;-64
2022/05/02 04:23:54;;;;;;;7.07;5.17;;;;;;;9.17;64.69;101554.31;2570026;23;20186;-64
2022/05/02 04:24:55;;;;;;;7.20;4.87;;;;;;;9.21;64.81;101554.28;2570223;23;20156;-64
2022/05/02 04:25:55;;;;;;;10.97;4.87;;;;;;;9.27;64.53;101563.78;2569823;23;20552;-64
2022/05/02 04:26:59;;;;;;;13.30;6.00;;;;;;;9.25;64.58;101555.88;2557306;23;20170;-64
2022/05/02 04:27:59;;;;;;;14.13;5.75;;;;;;;9.28;64.33;101566.13;2557640;23;20642;-65
2022/05/02 04:29:00;;;;;;;8.30;4.53;;;;;;;9.34;64.56;101552.66;2570049;23;20479;-65
2022/05/02 04:30:01;;;;;;;10.83;5.50;;;;;;;8.90;64.35;101486.06;2569838;23;20158;-64
2022/05/02 04:31:01;;;;;;;8.75;5.78;;;;;;;8.80;64.46;101460.03;2570519;23;20511;-64
2022/05/02 04:32:02;;;;;;;14.17;6.07;;;;;;;9.06;64.68;101489.97;2570451;23;20147;-65
2022/05/02 04:33:03;;;;;;;12.40;5.63;;;;;;;8.40;64.47;101369.38;2570424;23;20613;-65
2022/05/02 04:34:03;;;;;;;7.97;5.60;;;;;;;9.67;64.70;101563.97;2570190;23;20158;-64
2022/05/02 04:35:05;;;;;;;10.67;6.17;;;;;;;9.76;64.63;101566.28;2557008;23;20161;-65
2022/05/02 04:36:06;;;;;;;11.57;5.80;;;;;;;9.76;64.31;101561.56;2556843;23;20537;-64
2022/05/02 04:37:10;;;;;;;13.13;5.90;;;;;;;9.89;64.54;101565.41;2570155;23;20381;-64
2022/05/02 04:38:10;;;;;;;13.50;6.20;;;;;;;9.87;64.61;101569.78;2570316;23;20438;-64
2022/05/02 04:39:11;;;;;;;9.93;5.97;;;;;;;9.86;65.26;101568.22;2570181;23;20468;-65
2022/05/02 04:40:12;;;;;;;16.37;7.00;;;;;;;9.95;65.18;101565.78;2569825;23;20226;-65
2022/05/02 04:41:14;;;;;;;15.23;6.20;;;;;;;10.00;64.97;101562.59;2570367;23;20151;-65
2022/05/02 04:42:15;;;;;;;23.00;7.00;;;;;;;10.03;65.14;101568.09;2570471;23;20171;-65
2022/05/02 04:43:15;;;;;;;14.03;6.47;;;;;;;10.14;65.63;101562.53;2569969;23;20379;-65
2022/05/02 04:44:16;;;;;;;7.20;5.60;;;;;;;10.23;65.66;101569.19;2570178;23;20147;-65
2022/05/02 04:45:16;;;;;;;8.57;6.00;;;;;;;10.17;65.84;101542.31;2569918;23;20223;-64
2022/05/02 04:46:19;;;;;;;9.57;5.80;;;;;;;10.37;66.10;101571.06;2569934;23;20146;-64
2022/05/02 04:47:19;;;;;;;8.40;5.60;;;;;;;10.37;66.31;101554.44;2570594;23;20147;-64
2022/05/02 04:48:20;;;;;;;8.30;5.60;;;;;;;10.48;66.22;101561.47;2570241;23;20690;-64